Tiempo atmosférico en la estación meteorológica de Cillórigo de Liébana, Tama, Cantabria (250 m.)



Fecha
DESCASC
Temp. máxima en grados centígrados (hora)
DESCASC
Temp. mínima en grados centígrados (hora)
DESCASC
Temp. media en grados centígrados
DESCASC
Racha de viento máxima en m/sg (hora)
DESCASC
Velocidad máxima media en intervalos de 10 minutos(hora)
DESCASC
Precipitaciones diarias en mm
DESCASC
Precipitaciones de 00:00 a 06:00 en mm
DESCASC
Precipitaciones de 06:00 a 12:00 en mm
DESCASC
Precipitaciones de 12:00 a 18:00 en mm
DESCASC
Precipitaciones de 18:00 a 24:00 en mm
DESCASC
06-07-2020 22 (10:10) 16.8 (23:59) 19.4 13.06 (16:10) 6.11 (14:40) 0 0 0 0 0
05-07-2020 28.3 (13:20) 12.7 (07:10) 20.5 12.78 (16:10) 6.67 (16:00) 0 0 0 0 0
04-07-2020 28 (15:50) 13.4 (06:10) 20.7 10 (19:30) 5 (16:40) 0 0 0 0 0
03-07-2020 21.6 (14:20) 13.7 (06:50) 17.7 10.56 (18:40) 6.39 (17:40) 0 0 0 0 0
02-07-2020 18.4 (15:40) 15.3 (00:00) 16.8 9.44 (21:00) 5.28 (12:50) 0 0 0 0 0
01-07-2020 22.3 (12:50) 16.6 (00:00) 19.4 10 (16:50) 4.72 (13:00) 0.2 0.2 0 0 0
30-06-2020 27.1 (14:40) 14.7 (00:00) 20.9 10 (17:40) 4.72 (15:30) 2.2 0 0 0 2.2
29-06-2020 21.9 (19:00) 16.3 (00:00) 19.1 10 (17:00) 5.28 (16:40) 0 0 0 0 0
28-06-2020 26.3 (13:20) 17 (00:00) 21.6 12.22 (16:50) 6.67 (16:50) 0 0 0 0 0
27-06-2020 26.5 (13:40) 14.1 (00:00) 20.3 10.83 (15:40) 5 (15:00) 0 0 0 0 0
26-06-2020 22.6 (18:40) 16.2 (00:00) 19.4 7.5 (13:00) 3.89 (13:00) 0 0 0 0 0
25-06-2020 21.9 (16:30) 16.6 (00:00) 19.3 15 (18:20) 7.5 (18:00) 4.8 0 0.2 1 3.6
24-06-2020 29.4 (13:50) 13.9 (00:00) 21.6 8.33 (19:30) 4.44 (13:20) 0 0 0 0 0
23-06-2020 34 (16:50) 12.5 (00:00) 23.3 7.78 (17:50) 3.89 (17:50) 0 0 0 0 0
22-06-2020 28.6 (15:30) 14.3 (00:00) 21.5 9.17 (18:30) 4.17 (19:00) 0 0 0 0 0
21-06-2020 25.2 (13:50) 11.1 (00:00) 18.2 11.94 (16:30) 6.67 (16:40) 0 0 0 0 0
20-06-2020 23.3 (13:20) 14.3 (00:00) 18.8 12.22 (16:20) 6.39 (16:10) 0 0 0 0 0
19-06-2020 19.7 (18:20) 12.6 (00:00) 16.2 12.78 (16:40) 6.94 (16:30) 0 0 0 0 0
18-06-2020 20 (16:00) 12.4 (00:00) 16.2 10 (15:00) 5 (14:10) 1.8 1.8 0 0 0
17-06-2020 19.8 (14:10) 11.8 (00:00) 15.8 9.17 (19:40) 4.44 (19:40) 4.2 0.6 0 0 3.6
16-06-2020 18.3 (13:40) 12.4 (00:00) 15.3 9.17 (14:40) 4.72 (14:40) 2.4 0 0.6 1.6 0.2
15-06-2020 20.7 (12:40) 13.1 (00:00) 16.9 10 (13:50) 4.17 (13:20) 1.6 0 0 0.4 1.2
14-06-2020 20.6 (12:50) 10.5 (00:00) 15.6 9.17 (17:50) 5 (17:50) 1.8 0 0 0 1.8
13-06-2020 21.1 (15:00) 10.9 (00:00) 16 9.72 (16:50) 4.44 (15:50) 1.2 0.4 0 0.8 0
12-06-2020 19.3 (14:20) 9.2 (00:00) 14.2 8.61 (15:30) 5 (15:40) 1.6 0.4 0 1 0.2
11-06-2020 18.4 (11:50) 9.6 (00:00) 14 11.94 (12:20) 5.56 (12:30) 2.8 0 0 0.4 2.4
10-06-2020 19.1 (14:10) 7.6 (00:00) 13.4 10.28 (15:20) 5 (15:20) 0 0 0 0 0
09-06-2020 18.2 (16:00) 9.8 (00:00) 14 10 (17:10) 4.17 (18:10) 0 0 0 0 0
08-06-2020 17.5 (15:50) 5.9 (06:20) 11.7 10 (14:50) 5 (21:10) 0 0 0 0 0
07-06-2020 16.2 (15:30) 10.2 (00:00) 13.2 10.28 (19:10) 5 (18:30) 0 0 0 0 0

Gráficas

Temp. máximas Temp. mínimas Temp. medias Precipitaciones Rachas de viento máximas Velocidades máximas media en intervalos de 10 minutos

Datos horarios

Fecha y hora oficial Temperatura (ºC) Velocidad del viento (km/h) Dirección del viento Racha (km/h) Dirección de racha Precipitación (mm) Presión (hPa) Tendencia (hPa) Humedad (%)
2020-07-06 23:00:00 17 8 Norte 17 Norte 0 -- -- 82
2020-07-06 22:00:00 17.1 7 Norte 21 Norte 0 -- -- 81
2020-07-06 21:00:00 17.8 9 Norte 30 Noroeste 0 -- -- 79
2020-07-06 20:00:00 19.3 12 Norte 33 Norte 0 -- -- 73
2020-07-06 19:00:00 20.1 11 Norte 35 Norte 0 -- -- 70
2020-07-06 18:00:00 20.4 13 Norte 41 Noroeste 0 -- -- 69
2020-07-06 17:00:00 20.7 17 Noroeste 47 Noroeste 0 -- -- 68
2020-07-06 16:00:00 20.7 19 Noroeste 37 Norte 0 -- -- 68
2020-07-06 15:00:00 20.8 20 Noroeste 44 Noroeste 0 -- -- 69
2020-07-06 14:00:00 21.5 14 Norte 31 Nordeste 0 -- -- 68
2020-07-06 13:00:00 21.6 16 Norte 34 Norte 0 -- -- 68
2020-07-06 12:00:00 20.6 18 Norte 36 Norte 0 -- -- 71
2020-07-06 11:00:00 21.2 14 Norte 26 Noroeste 0 -- -- 71
2020-07-06 10:00:00 21.7 5 Noroeste 17 Noroeste 0 -- -- 72
2020-07-06 09:00:00 19.3 5 Norte 11 Nordeste 0 -- -- 80
2020-07-06 08:00:00 18.1 0 Calma 3 Este 0 -- -- 84
2020-07-06 07:00:00 18 0 Calma 7 Sur 0 -- -- 84
2020-07-06 06:00:00 18.5 3 Sudeste 12 Noroeste 0 -- -- 83
2020-07-06 05:00:00 18.6 5 Nordeste 19 Norte 0 -- -- 82
2020-07-06 04:00:00 18.3 0 Calma 8 Noroeste 0 -- -- 84
2020-07-06 03:00:00 18.5 0 Calma 5 Norte 0 -- -- 83
2020-07-06 02:00:00 18.8 3 Norte 12 Noroeste 0 -- -- 83
2020-07-06 01:00:00 19.3 3 Norte 9 Norte 0 -- -- 79
2020-07-06 00:00:00 19.9 2 Oeste 22 Noroeste 0 -- -- 75
2020-07-05 23:00:00 20.8 9 Noroeste 23 Noroeste 0 -- -- 74
2020-07-05 22:00:00 21.8 8 Norte 26 Norte 0 -- -- 71
2020-07-05 21:00:00 23.2 12 Norte 28 Norte 0 -- -- 67
2020-07-05 20:00:00 25.8 10 Noroeste 33 Norte 0 -- -- 56
2020-07-05 19:00:00 26.3 15 Norte 35 Noroeste 0 -- -- 55
2020-07-05 18:00:00 26.8 14 Noroeste 40 Norte 0 -- -- 55
2020-07-05 17:00:00 26.9 16 Norte 46 Norte 0 -- -- 57
2020-07-05 16:00:00 26.8 24 Norte 45 Norte 0 -- -- 57
2020-07-05 15:00:00 27.2 21 Norte 38 Norte 0 -- -- 56
2020-07-05 14:00:00 28.2 10 Norte 25 Norte 0 -- -- 53
2020-07-05 13:00:00 27.8 7 Nordeste 14 Este 0 -- -- 50
2020-07-05 12:00:00 25.5 3 Noroeste 8 Oeste 0 -- -- 56
2020-07-05 11:00:00 22.1 0 Calma 0 Calma 0 -- -- 65
2020-07-05 10:00:00 18.7 0 Calma 0 Calma 0 -- -- 78
2020-07-05 09:00:00 13.8 0 Calma -- -- 0 -- -- 96
2020-07-05 08:00:00 12.8 0 Calma -- -- 0 -- -- 95
2020-07-05 07:00:00 12.8 0 Calma 3 Sudeste 0 -- -- 94
2020-07-05 06:00:00 13.2 0 Calma -- -- 0 -- -- 93
2020-07-05 05:00:00 13.8 0 Calma 3 Noroeste 0 -- -- 92
2020-07-05 04:00:00 14.4 0 Calma -- -- 0 -- -- 90
2020-07-05 03:00:00 15.2 0 Calma 4 Sudoeste 0 -- -- 87
2020-07-05 02:00:00 16.1 0 Calma 3 Sudoeste 0 -- -- 84
2020-07-05 01:00:00 17.1 0 Calma 3 Sur 0 -- -- 79
2020-07-05 00:00:00 18.6 0 Calma 7 Sudoeste 0 -- -- 75
2020-07-04 23:00:00 20.9 0 Calma 16 Noroeste 0 -- -- 63
2020-07-04 22:00:00 22.8 8 Norte 27 Norte 0 -- -- 52
2020-07-04 21:00:00 23.9 9 Noroeste 25 Norte 0 -- -- 54
2020-07-04 20:00:00 26.3 13 Noroeste 36 Este 0 -- -- 50
2020-07-04 19:00:00 27.1 14 Norte 35 Norte 0 -- -- 47
2020-07-04 18:00:00 27.4 14 Norte 32 Norte 0 -- -- 48
2020-07-04 17:00:00 27.5 17 Norte 33 Noroeste 0 -- -- 46
2020-07-04 16:00:00 27.9 13 Norte 26 Norte 0 -- -- 46
2020-07-04 15:00:00 27.3 13 Norte 26 Norte 0 -- -- 40
2020-07-04 14:00:00 26.4 7 Norte 18 Norte 0 -- -- 41
2020-07-04 13:00:00 24.9 4 Noroeste 13 Nordeste 0 -- -- 50
2020-07-04 12:00:00 22.4 4 Nordeste 10 Norte 0 -- -- 48
2020-07-04 11:00:00 19.8 3 Norte 9 Sur 0 -- -- 58
2020-07-04 10:00:00 18.1 3 Este 9 Sudeste 0 -- -- 66
2020-07-04 09:00:00 15.1 8 Sudeste 13 Sudeste 0 -- -- 76
2020-07-04 08:00:00 14.4 7 Sudeste 12 Sur 0 -- -- 80
2020-07-04 07:00:00 13.4 0 Calma 2 Noroeste 0 -- -- 94
2020-07-04 06:00:00 13.5 0 Calma 3 Noroeste 0 -- -- 93
2020-07-04 05:00:00 13.5 0 Calma 3 Noroeste 0 -- -- 92
2020-07-04 04:00:00 13.9 0 Calma 3 Oeste 0 -- -- 91
2020-07-04 03:00:00 14.2 0 Calma 6 Oeste 0 -- -- 88
2020-07-04 02:00:00 14.8 2 Sudoeste 7 Oeste 0 -- -- 86
2020-07-04 01:00:00 15.7 2 Sudoeste 5 Oeste 0 -- -- 83
2020-07-04 00:00:00 16.3 0 Calma 7 Noroeste 0 -- -- 80
2020-07-03 23:00:00 16.8 3 Noroeste 11 Noroeste 0 -- -- 77
2020-07-03 22:00:00 17.3 4 Noroeste 21 Noroeste 0 -- -- 75
2020-07-03 21:00:00 17.6 9 Norte 30 Noroeste 0 -- -- 73
2020-07-03 20:00:00 18.6 15 Noroeste 35 Noroeste 0 -- -- 69
2020-07-03 19:00:00 19.4 15 Noroeste 38 Noroeste 0 -- -- 67
2020-07-03 18:00:00 20 18 Noroeste 36 Norte 0 -- -- 64
2020-07-03 17:00:00 20.4 17 Norte 37 Norte 0 -- -- 61
2020-07-03 16:00:00 20.8 16 Norte 31 Norte 0 -- -- 62
2020-07-03 15:00:00 21.1 16 Norte 29 Norte 0 -- -- 56
2020-07-03 14:00:00 21.3 7 Norte 16 Noroeste 0 -- -- 48
2020-07-03 13:00:00 20.8 6 Norte 13 Nordeste 0 -- -- 47
2020-07-03 12:00:00 18 2 Oeste 5 Oeste 0 -- -- 63
2020-07-03 11:00:00 17.1 0 Calma 5 Este 0 -- -- 66
2020-07-03 10:00:00 15.9 0 Calma 4 Nordeste 0 -- -- 73
2020-07-03 09:00:00 14.7 0 Calma 3 Oeste 0 -- -- 82
2020-07-03 08:00:00 13.9 0 Calma 3 Sur 0 -- -- 87
2020-07-03 07:00:00 13.7 0 Calma 7 Sudeste 0 -- -- 87
2020-07-03 06:00:00 14 5 Sudeste 11 Sur 0 -- -- 83
2020-07-03 05:00:00 14.1 6 Sudeste 13 Sudeste 0 -- -- 82
2020-07-03 04:00:00 14.6 6 Sudeste 12 Sudeste 0 -- -- 79
2020-07-03 03:00:00 15 3 Sudeste 12 Norte 0 -- -- 80
2020-07-03 02:00:00 15.2 4 Este 19 Norte 0 -- -- 77
2020-07-03 01:00:00 15.3 5 Noroeste 23 Noroeste 0 -- -- 73
2020-07-03 00:00:00 15.4 8 Norte 27 Norte 0 -- -- 74
2020-07-02 23:00:00 15.7 9 Norte 24 Norte 0 -- -- 72
2020-07-02 22:00:00 16.5 11 Norte 28 Norte 0 -- -- 66
2020-07-02 21:00:00 16.5 15 Norte 34 Nordeste 0 -- -- 67
2020-07-02 20:00:00 16.7 13 Norte 28 Noroeste 0 -- -- 68
2020-07-02 19:00:00 17.1 13 Norte 32 Norte 0 -- -- 66
2020-07-02 18:00:00 17.3 12 Norte 27 Norte 0 -- -- 67
2020-07-02 17:00:00 17.5 13 Norte 26 Norte 0 -- -- 69
2020-07-02 16:00:00 18.2 10 Norte 29 Norte 0 -- -- 65
2020-07-02 15:00:00 18 9 Norte 23 Nordeste 0 -- -- 65
2020-07-02 14:00:00 17.1 9 Norte 33 Norte 0 -- -- 67
2020-07-02 13:00:00 17 13 Noroeste 33 Norte 0 -- -- 70
2020-07-02 12:00:00 16.6 15 Norte 29 Norte 0 -- -- 72
2020-07-02 11:00:00 17 5 Noroeste 19 Norte 0 -- -- 75
2020-07-02 10:00:00 16.6 6 Norte 15 Noroeste 0 -- -- 78
2020-07-02 09:00:00 16.1 3 Nordeste 18 Nordeste 0 -- -- 80
2020-07-02 08:00:00 15.5 6 Norte 17 Norte 0 -- -- 82
2020-07-02 07:00:00 15.3 0 Calma 6 Norte 0 -- -- 88
2020-07-02 06:00:00 15.6 0 Calma 5 Sur 0 -- -- 92
2020-07-02 05:00:00 15.6 3 Sur 8 Sudeste 0 -- -- 91
2020-07-02 04:00:00 15.9 5 Sudeste 7 Sudeste 0 -- -- 89
2020-07-02 03:00:00 16.1 3 Sur 8 Sur 0 -- -- 88
2020-07-02 02:00:00 16.2 0 Calma 6 Sur 0 -- -- 87
2020-07-02 01:00:00 16.3 4 Sur 9 Sudeste 0 -- -- 89
2020-07-02 00:00:00 16.6 3 Sur 18 Oeste 0 -- -- 87
2020-07-01 23:00:00 16.8 5 Noroeste 19 Oeste 0 -- -- 84
2020-07-01 22:00:00 17.1 6 Noroeste 22 Norte 0 -- -- 83
2020-07-01 21:00:00 18 8 Noroeste 26 Norte 0 -- -- 78
2020-07-01 20:00:00 18.3 12 Noroeste 32 Noroeste 0 -- -- 79
2020-07-01 19:00:00 19.2 10 Norte 31 Norte 0 -- -- 76
2020-07-01 18:00:00 20.3 9 Norte 26 Norte 0 -- -- 74
2020-07-01 17:00:00 20.2 12 Noroeste 36 Noroeste 0 -- -- 77
2020-07-01 16:00:00 20.7 11 Norte 31 Norte 0 -- -- 76
2020-07-01 15:00:00 20.7 15 Noroeste 31 Noroeste 0 -- -- 76
2020-07-01 14:00:00 21.4 13 Norte 27 Norte 0 -- -- 74
2020-07-01 13:00:00 22.1 17 Norte 34 Norte 0 -- -- 72
2020-07-01 12:00:00 21.6 7 Norte 17 Norte 0 -- -- 76
2020-07-01 11:00:00 21 4 Norte 15 Norte 0 -- -- 80
2020-07-01 10:00:00 19.6 0 Calma 4 Noroeste 0 -- -- 87
2020-07-01 09:00:00 18.7 0 Calma 3 Noroeste 0 -- -- 94
2020-07-01 08:00:00 18.1 0 Calma 4 Noroeste 0 -- -- 95
2020-07-01 07:00:00 18.1 0 Calma 4 Oeste 0 -- -- 95
2020-07-01 06:00:00 18.1 0 Calma 2 Noroeste 0 -- -- 95
2020-07-01 05:00:00 18.1 0 Calma 4 Noroeste 0 -- -- 95
2020-07-01 04:00:00 18.1 0 Calma 3 Noroeste 0 -- -- 95
2020-07-01 03:00:00 18.3 0 Calma 4 Noroeste 0 -- -- 94
2020-07-01 02:00:00 18.3 0 Calma 8 Sudoeste 0.2 -- -- 92
2020-07-01 01:00:00 18.3 0 Calma 8 Nordeste 0 -- -- 90
2020-07-01 00:00:00 18.6 3 Norte 11 Este 0 -- -- 89
2020-06-30 23:00:00 19.3 0 Calma 15 Noroeste 0 -- -- 85
2020-06-30 22:00:00 19.8 0 Calma 13 Norte 0 -- -- 87
2020-06-30 21:00:00 20.7 2 Norte 11 Noroeste 0 -- -- 80
2020-06-30 20:00:00 21.2 4 Noroeste 18 Noroeste 0 -- -- 79
2020-06-30 19:00:00 21.2 3 Norte 24 Norte 2.2 -- -- 85
2020-06-30 18:00:00 23.5 12 Noroeste 36 Norte 0 -- -- 71
2020-06-30 17:00:00 25.4 10 Norte 35 Norte 0 -- -- 63
2020-06-30 16:00:00 26.5 16 Norte 32 Norte 0 -- -- 59
2020-06-30 15:00:00 26.2 14 Norte 29 Norte 0 -- -- 58
2020-06-30 14:00:00 26.7 14 Noroeste 31 Norte 0 -- -- 54
2020-06-30 13:00:00 25.9 9 Norte 26 Noroeste 0 -- -- 56
2020-06-30 12:00:00 24.4 3 Oeste 8 Noroeste 0 -- -- 62
2020-06-30 11:00:00 21.3 4 Noroeste 6 Noroeste 0 -- -- 70
2020-06-30 10:00:00 19.9 3 Este 5 Este 0 -- -- 72
2020-06-30 09:00:00 16.7 0 Calma 5 Norte 0 -- -- 87
2020-06-30 08:00:00 15.9 0 Calma 2 Noroeste 0 -- -- 91
2020-06-30 07:00:00 15.3 0 Calma 2 Noroeste 0 -- -- 92
2020-06-30 06:00:00 15.3 0 Calma 2 Noroeste 0 -- -- 91
2020-06-30 05:00:00 15.3 0 Calma 4 Noroeste 0 -- -- 91
2020-06-30 04:00:00 15.2 0 Calma 3 Noroeste 0 -- -- 93
2020-06-30 03:00:00 14.9 0 Calma 2 Noroeste 0 -- -- 94
2020-06-30 02:00:00 14.8 0 Calma 3 Noroeste 0 -- -- 93
2020-06-30 01:00:00 15.3 0 Calma 5 Sudoeste 0 -- -- 90
2020-06-30 00:00:00 16.3 2 Sudoeste 7 Sudoeste 0 -- -- 86
2020-06-29 23:00:00 17.4 0 Calma 17 Noroeste 0 -- -- 81
2020-06-29 22:00:00 18.2 6 Noroeste 21 Noroeste 0 -- -- 78
2020-06-29 21:00:00 19 6 Noroeste 22 Norte 0 -- -- 76
2020-06-29 20:00:00 20.8 10 Noroeste 30 Norte 0 -- -- 69
2020-06-29 19:00:00 21.9 9 Noroeste 29 Norte 0 -- -- 69
2020-06-29 18:00:00 21.5 14 Norte 35 Norte 0 -- -- 68
2020-06-29 17:00:00 21.2 15 Norte 36 Norte 0 -- -- 70
2020-06-29 16:00:00 21.3 14 Norte 31 Norte 0 -- -- 68
2020-06-29 15:00:00 21 15 Norte 36 Noroeste 0 -- -- 69
2020-06-29 14:00:00 21 15 Norte 29 Norte 0 -- -- 69
2020-06-29 13:00:00 20.9 12 Norte 24 Norte 0 -- -- 69
2020-06-29 12:00:00 20.9 9 Noroeste 23 Norte 0 -- -- 70
2020-06-29 11:00:00 19.9 7 Norte 16 Noroeste 0 -- -- 72
2020-06-29 10:00:00 18.3 4 Norte 12 Norte 0 -- -- 78
2020-06-29 09:00:00 17.7 3 Norte 14 Noroeste 0 -- -- 80
2020-06-29 08:00:00 17.3 3 Norte 12 Norte 0 -- -- 81
2020-06-29 07:00:00 17.2 4 Norte 16 Noroeste 0 -- -- 80
2020-06-29 06:00:00 17.5 5 Norte 12 Norte 0 -- -- 79
2020-06-29 05:00:00 17.7 9 Noroeste 18 Noroeste 0 -- -- 79
2020-06-29 04:00:00 17.8 7 Noroeste 20 Norte 0 -- -- 79
2020-06-29 03:00:00 18 4 Noroeste 12 Norte 0 -- -- 80
2020-06-29 02:00:00 18.3 5 Norte 13 Nordeste 0 -- -- 81
2020-06-29 01:00:00 18.7 3 Norte 12 Nordeste 0 -- -- 82
2020-06-29 00:00:00 19 3 Norte 8 Noroeste 0 -- -- 82
2020-06-28 23:00:00 19.4 2 Sur 12 Norte 0 -- -- 80
2020-06-28 22:00:00 19.4 9 Norte 22 Norte 0 -- -- 78
2020-06-28 21:00:00 20 9 Norte 21 Norte 0 -- -- 75
2020-06-28 20:00:00 20.7 8 Norte 38 Norte 0 -- -- 72
2020-06-28 19:00:00 21.1 14 Noroeste 38 Norte 0 -- -- 70
2020-06-28 18:00:00 22.4 16 Norte 42 Norte 0 -- -- 65
2020-06-28 17:00:00 24.3 23 Norte 44 Norte 0 -- -- 59
2020-06-28 16:00:00 25.3 20 Norte 35 Norte 0 -- -- 58
2020-06-28 15:00:00 25.6 13 Norte 37 Norte 0 -- -- 58
2020-06-28 14:00:00 24.6 16 Norte 35 Norte 0 -- -- 62
2020-06-28 13:00:00 25.9 6 Norte 15 Norte 0 -- -- 53
2020-06-28 12:00:00 24.1 5 Norte 10 Sur 0 -- -- 58
2020-06-28 11:00:00 22.5 3 Oeste 7 Noroeste 0 -- -- 64
2020-06-28 10:00:00 21.1 3 Este 5 Nordeste 0 -- -- 73
2020-06-28 09:00:00 18.1 0 Calma 3 Oeste 0 -- -- 84
2020-06-28 08:00:00 17.1 0 Calma 3 Noroeste 0 -- -- 88
2020-06-28 07:00:00 17.1 0 Calma 4 Nordeste 0 -- -- 88
2020-06-28 06:00:00 17.1 0 Calma 4 Norte 0 -- -- 88
2020-06-28 05:00:00 17.3 0 Calma 4 Noroeste 0 -- -- 86
2020-06-28 04:00:00 17.4 0 Calma 6 Norte 0 -- -- 85
2020-06-28 03:00:00 17.6 0 Calma 12 Noroeste 0 -- -- 84
2020-06-28 02:00:00 17.7 4 Norte 16 Norte 0 -- -- 82
2020-06-28 01:00:00 18 8 Norte 19 Norte 0 -- -- 83
2020-06-28 00:00:00 18.1 8 Noroeste 21 Norte 0 -- -- 82
2020-06-27 23:00:00 18.2 11 Norte 24 Norte 0 -- -- 83
2020-06-27 22:00:00 18.6 6 Norte 32 Norte 0 -- -- 83
2020-06-27 21:00:00 19.7 14 Norte 33 Norte 0 -- -- 79
2020-06-27 20:00:00 22.4 11 Norte 35 Norte 0 -- -- 69
2020-06-27 19:00:00 23.4 10 Norte 27 Norte 0 -- -- 64
2020-06-27 18:00:00 23.4 14 Norte 35 Noroeste 0 -- -- 63
2020-06-27 17:00:00 24.1 14 Norte 29 Norte 0 -- -- 59
2020-06-27 16:00:00 24.1 15 Noroeste 39 Noroeste 0 -- -- 58
2020-06-27 15:00:00 24.4 18 Norte 31 Norte 0 -- -- 59
2020-06-27 14:00:00 26 10 Norte 23 Norte 0 -- -- 54
2020-06-27 13:00:00 25.8 5 Noroeste 12 Norte 0 -- -- 58
2020-06-27 12:00:00 24 3 Noroeste 6 Sudoeste 0 -- -- 61
2020-06-27 11:00:00 22.4 2 Este 5 Este 0 -- -- 68
2020-06-27 10:00:00 19.8 2 Sudeste 5 Este 0 -- -- 76
2020-06-27 09:00:00 16 0 Calma 5 Sudeste 0 -- -- 95
2020-06-27 08:00:00 15.1 0 Calma 5 Noroeste 0 -- -- 97
2020-06-27 07:00:00 14.6 0 Calma 3 Noroeste 0 -- -- 97
2020-06-27 06:00:00 14.5 0 Calma 4 Norte 0 -- -- 97
2020-06-27 05:00:00 14.7 0 Calma 3 Noroeste 0 -- -- 97
2020-06-27 04:00:00 14.3 0 Calma 2 Este 0 -- -- 97
2020-06-27 03:00:00 14.4 0 Calma 3 Oeste 0 -- -- 95
2020-06-27 02:00:00 15.1 0 Calma 4 Oeste 0 -- -- 94
2020-06-27 01:00:00 15.9 0 Calma 2 Oeste 0 -- -- 93
2020-06-27 00:00:00 16.8 0 Calma 3 Noroeste 0 -- -- 91
2020-06-26 23:00:00 18.2 0 Calma 7 Nordeste 0 -- -- 87
2020-06-26 22:00:00 19.7 3 Norte 12 Nordeste 0 -- -- 81
2020-06-26 21:00:00 21.4 10 Nordeste 13 Nordeste 0 -- -- 73
2020-06-26 20:00:00 22.2 0 Calma 10 Norte 0 -- -- 71
2020-06-26 19:00:00 22.6 2 Norte 9 Nordeste 0 -- -- 67
2020-06-26 18:00:00 22.5 2 Nordeste 12 Norte 0 -- -- 66
2020-06-26 17:00:00 22.5 4 Norte 12 Norte 0 -- -- 65
2020-06-26 16:00:00 21 6 Noroeste 22 Noroeste 0 -- -- 72
2020-06-26 15:00:00 19.8 10 Norte 22 Noroeste 0 -- -- 76
2020-06-26 14:00:00 18.8 8 Noroeste 24 Norte 0 -- -- 76
2020-06-26 13:00:00 18.7 14 Norte 27 Norte 0 -- -- 77
2020-06-26 12:00:00 18.5 9 Noroeste 19 Noroeste 0 -- -- 78
2020-06-26 11:00:00 17.8 9 Norte 21 Norte 0 -- -- 79
2020-06-26 10:00:00 17.5 6 Noroeste 14 Oeste 0 -- -- 81
2020-06-26 09:00:00 16.7 3 Noroeste 8 Norte 0 -- -- 86
2020-06-26 08:00:00 16.2 0 Calma 5 Noroeste 0 -- -- 89
2020-06-26 07:00:00 16.3 3 Este 6 Norte 0 -- -- 89
2020-06-26 06:00:00 16.4 2 Norte 12 Noroeste 0 -- -- 87
2020-06-26 05:00:00 16.4 2 Noroeste 9 Sudoeste 0 -- -- 92
2020-06-26 04:00:00 16.6 0 Calma 4 Sudoeste 0 -- -- 92
2020-06-26 03:00:00 16.8 0 Calma 12 Norte 0 -- -- 90
2020-06-26 02:00:00 16.8 8 Norte 17 Noroeste 0 -- -- 87
2020-06-26 01:00:00 16.9 7 Noroeste 19 Norte 0 -- -- 87
2020-06-26 00:00:00 17.1 3 Noroeste 12 Nordeste 0 -- -- 90
2020-06-25 23:00:00 17.2 0 Calma 19 Noroeste 0 -- -- 89
2020-06-25 22:00:00 17.5 3 Sur 10 Norte 0.2 -- -- 93
2020-06-25 21:00:00 18.1 4 Nordeste 23 Nordeste 1.6 -- -- 92
2020-06-25 20:00:00 18.6 6 Sur 26 Noroeste 1.8 -- -- 85
2020-06-25 19:00:00 19.8 13 Noroeste 54 Norte 0 -- -- 77
2020-06-25 18:00:00 19.3 27 Norte 51 Norte 0.2 -- -- 79
2020-06-25 17:00:00 21 12 Norte 27 Norte 0 -- -- 75
2020-06-25 16:00:00 21.3 11 Nordeste 17 Nordeste 0 -- -- 78
2020-06-25 15:00:00 20.3 4 Norte 12 Nordeste 0 -- -- 83
2020-06-25 14:00:00 19.9 2 Norte 17 Norte 0.6 -- -- 85
2020-06-25 13:00:00 20.6 4 Oeste 21 Norte 0.2 -- -- 78
2020-06-25 12:00:00 21.4 8 Norte 25 Norte 0 -- -- 73
2020-06-25 11:00:00 19.9 9 Norte 20 Norte 0 -- -- 77
2020-06-25 10:00:00 18.1 3 Sudeste 16 Sudeste 0.2 -- -- 92
2020-06-25 09:00:00 17.5 0 Calma 12 Sudeste 0 -- -- 92
2020-06-25 08:00:00 17 3 Nordeste 5 Sur 0 -- -- 93
2020-06-25 07:00:00 16.6 3 Sudoeste 6 Oeste 0 -- -- 93
2020-06-25 06:00:00 17.1 0 Calma 5 Sur 0 -- -- 90
2020-06-25 05:00:00 18.2 0 Calma 5 Sur 0 -- -- 87
2020-06-25 04:00:00 18.8 0 Calma 9 Nordeste 0 -- -- 87
2020-06-25 03:00:00 19.2 0 Calma 7 Este 0 -- -- 87
2020-06-25 02:00:00 19.9 0 Calma 10 Sur 0 -- -- 85
2020-06-25 01:00:00 19.6 3 Norte 8 Norte 0 -- -- 88
2020-06-25 00:00:00 19.7 0 Calma 4 Oeste 0 -- -- 87
2020-06-24 23:00:00 21 0 Calma 6 Sudeste 0 -- -- 82
2020-06-24 22:00:00 22.6 0 Calma 8 Norte 0 -- -- 76
2020-06-24 21:00:00 24.3 2 Noroeste 12 Sudoeste 0 -- -- 74
2020-06-24 20:00:00 25.4 4 Oeste 30 Norte 0 -- -- 66
2020-06-24 19:00:00 25.9 8 Norte 21 Nordeste 0 -- -- 65
2020-06-24 18:00:00 27.1 6 Norte 18 Nordeste 0 -- -- 64
2020-06-24 17:00:00 26.6 8 Norte 16 Norte 0 -- -- 62
2020-06-24 16:00:00 27.8 6 Norte 17 Norte 0 -- -- 58
2020-06-24 15:00:00 29 7 Norte 18 Nordeste 0 -- -- 54
2020-06-24 14:00:00 29.2 8 Nordeste 24 Nordeste 0 -- -- 51
2020-06-24 13:00:00 28.7 13 Nordeste 21 Nordeste 0 -- -- 48
2020-06-24 12:00:00 27.7 5 Nordeste 9 Norte 0 -- -- 47
2020-06-24 11:00:00 24.4 2 Noroeste 12 Oeste -- -- -- 62
2020-06-24 10:00:00 20.9 0 Calma 4 Nordeste -- -- -- 71
2020-06-24 09:00:00 15.6 0 Calma 5 Nordeste 0 -- -- 93
2020-06-24 08:00:00 14 0 Calma 5 Este 0 -- -- 95
2020-06-24 07:00:00 14.1 0 Calma 3 Sudoeste 0 -- -- 93
2020-06-24 06:00:00 14.9 0 Calma 4 Sur 0 -- -- 92
2020-06-24 05:00:00 15.8 0 Calma 3 Oeste 0 -- -- 90
2020-06-24 04:00:00 16.6 0 Calma 6 Sudeste 0 -- -- 89
2020-06-24 03:00:00 17.2 0 Calma 8 Sur 0 -- -- 86
2020-06-24 02:00:00 17.2 0 Calma 6 Sur 0 -- -- 89
2020-06-24 01:00:00 17.8 0 Calma -- -- 0 -- -- 86
2020-06-24 00:00:00 19.2 0 Calma 3 Sur 0 -- -- 80
2020-06-23 23:00:00 21.1 0 Calma 4 Sudoeste 0 -- -- 72
2020-06-23 22:00:00 23.9 0 Calma 13 Nordeste 0 -- -- 61
2020-06-23 21:00:00 28.7 9 Nordeste 13 Este 0 -- -- 48
2020-06-23 20:00:00 32.2 6 Noroeste 21 Noroeste 0 -- -- 33
2020-06-23 19:00:00 33 9 Noroeste 25 Norte 0 -- -- 32
2020-06-23 18:00:00 33.5 14 Norte 28 Norte 0 -- -- 30
2020-06-23 17:00:00 34 9 Norte 26 Norte 0 -- -- 27
2020-06-23 16:00:00 33.9 9 Norte 23 Norte 0 -- -- 30
2020-06-23 15:00:00 33 11 Noroeste 24 Norte 0 -- -- 36
2020-06-23 14:00:00 31.7 7 Nordeste 12 Nordeste 0 -- -- 36
2020-06-23 13:00:00 29.1 4 Noroeste 8 Noroeste 0 -- -- 41
2020-06-23 12:00:00 25.7 3 Noroeste 6 Noroeste 0 -- -- 54
2020-06-23 11:00:00 22.2 0 Calma 5 Este 0 -- -- 64
2020-06-23 10:00:00 18.5 0 Calma 0 Calma 0 -- -- 76
2020-06-23 09:00:00 13.6 0 Calma -- -- 0 -- -- 97
2020-06-23 08:00:00 12.8 0 Calma -- -- 0 -- -- 97
2020-06-23 07:00:00 12.6 0 Calma -- -- 0 -- -- 96
2020-06-23 06:00:00 13 0 Calma -- -- 0 -- -- 96
2020-06-23 05:00:00 13.6 0 Calma -- -- 0 -- -- 95
2020-06-23 04:00:00 14.5 0 Calma -- -- 0 -- -- 94
2020-06-23 03:00:00 15.2 0 Calma 2 Este 0 -- -- 93
2020-06-23 02:00:00 16.1 0 Calma -- -- 0 -- -- 92
2020-06-23 01:00:00 17.1 0 Calma 2 Sur 0 -- -- 90
2020-06-23 00:00:00 18.4 0 Calma 4 Sudoeste 0 -- -- 85
2020-06-22 23:00:00 20 0 Calma 3 Sudoeste 0 -- -- 81
2020-06-22 22:00:00 22.5 0 Calma 11 Noroeste 0 -- -- 72
2020-06-22 21:00:00 24.6 6 Noroeste 22 Norte 0 -- -- 63
2020-06-22 20:00:00 26.2 12 Norte 26 Noroeste 0 -- -- 60
2020-06-22 19:00:00 26.5 15 Noroeste 33 Norte 0 -- -- 63
2020-06-22 18:00:00 27.2 13 Norte 29 Norte 0 -- -- 62
2020-06-22 17:00:00 28 12 Noroeste 29 Norte 0 -- -- 57
2020-06-22 16:00:00 28.4 13 Norte 24 Norte 0 -- -- 54
2020-06-22 15:00:00 28.4 11 Norte 21 Norte 0 -- -- 51
2020-06-22 14:00:00 28.1 4 Norte 11 Norte 0 -- -- 47
2020-06-22 13:00:00 26 4 Noroeste 10 Norte 0 -- -- 42
2020-06-22 12:00:00 23.9 4 Noroeste 8 Oeste 0 -- -- 56
2020-06-22 11:00:00 22.8 0 Calma 5 Sudeste 0 -- -- 60
2020-06-22 10:00:00 20.2 3 Este 5 Este 0 -- -- 69
2020-06-22 09:00:00 15.9 0 Calma 5 Noroeste 0 -- -- 93
2020-06-22 08:00:00 14.9 0 Calma -- -- 0 -- -- 94
2020-06-22 07:00:00 14.4 0 Calma 2 Noroeste 0 -- -- 95
2020-06-22 06:00:00 14.5 0 Calma -- -- 0 -- -- 93
2020-06-22 05:00:00 14.8 0 Calma -- -- 0 -- -- 92
2020-06-22 04:00:00 15.2 0 Calma 2 Sudeste 0 -- -- 88
2020-06-22 03:00:00 16.8 0 Calma 8 Nordeste 0 -- -- 83
2020-06-22 02:00:00 17.8 0 Calma 4 Norte 0 -- -- 81
2020-06-22 01:00:00 18.2 0 Calma 5 Noroeste 0 -- -- 79
2020-06-22 00:00:00 18.9 0 Calma 15 Noroeste 0 -- -- 74
2020-06-21 23:00:00 19.3 8 Noroeste 20 Norte 0 -- -- 69
2020-06-21 22:00:00 19.9 7 Noroeste 15 Noroeste 0 -- -- 67
2020-06-21 21:00:00 20.2 6 Norte 19 Noroeste 0 -- -- 66
2020-06-21 20:00:00 20.5 11 Norte 25 Norte 0 -- -- 65
2020-06-21 19:00:00 21.1 5 Norte 31 Noroeste 0 -- -- 63
2020-06-21 18:00:00 21.9 15 Noroeste 37 Norte 0 -- -- 60
2020-06-21 17:00:00 23.4 21 Norte 43 Norte 0 -- -- 57
2020-06-21 16:00:00 24.4 20 Norte 37 Norte 0 -- -- 58
2020-06-21 15:00:00 24.7 17 Norte 35 Noroeste 0 -- -- 57
2020-06-21 14:00:00 25.2 8 Norte 24 Noroeste 0 -- -- 56
2020-06-21 13:00:00 23.8 11 Noroeste 27 Norte 0 -- -- 59
2020-06-21 12:00:00 22.9 6 Noroeste 18 Norte 0 -- -- 65
2020-06-21 11:00:00 20.9 2 Sudoeste 6 Sudoeste 0 -- -- 73
2020-06-21 10:00:00 17.3 0 Calma 5 Noroeste 0 -- -- 83
2020-06-21 09:00:00 12.7 0 Calma -- -- 0 -- -- 98
2020-06-21 08:00:00 11.4 0 Calma -- -- 0 -- -- 97
2020-06-21 07:00:00 11.2 0 Calma -- -- 0 -- -- 96
2020-06-21 06:00:00 11.7 0 Calma -- -- 0 -- -- 95
2020-06-21 05:00:00 12.2 0 Calma 2 Sudoeste 0 -- -- 94
2020-06-21 04:00:00 12.8 0 Calma 3 Norte 0 -- -- 94
2020-06-21 03:00:00 13.7 0 Calma -- -- 0 -- -- 92
2020-06-21 02:00:00 14.5 0 Calma 4 Oeste 0 -- -- 90
2020-06-21 01:00:00 15.3 0 Calma 6 Sudoeste 0 -- -- 87
2020-06-21 00:00:00 16.7 0 Calma 5 Nordeste 0 -- -- 82
2020-06-20 23:00:00 18.4 2 Norte 17 Noroeste 0 -- -- 74
2020-06-20 22:00:00 20.3 8 Noroeste 18 Norte 0 -- -- 67
2020-06-20 21:00:00 21.2 6 Noroeste 28 Norte 0 -- -- 66
2020-06-20 20:00:00 21.5 15 Noroeste 37 Norte 0 -- -- 65
2020-06-20 19:00:00 22.6 19 Noroeste 39 Norte 0 -- -- 61
2020-06-20 18:00:00 22.8 16 Norte 34 Noroeste 0 -- -- 62
2020-06-20 17:00:00 22.1 22 Norte 44 Norte 0 -- -- 67
2020-06-20 16:00:00 22.3 23 Norte 41 Norte 0 -- -- 65
2020-06-20 15:00:00 22.6 18 Norte 40 Norte 0 -- -- 65
2020-06-20 14:00:00 23 17 Norte 33 Norte 0 -- -- 63
2020-06-20 13:00:00 23.1 12 Norte 25 Norte 0 -- -- 59
2020-06-20 12:00:00 22.1 5 Oeste 9 Oeste 0 -- -- 61
2020-06-20 11:00:00 20.8 3 Este 6 Este 0 -- -- 62
2020-06-20 10:00:00 18.9 0 Calma 0 Calma 0 -- -- 73
2020-06-20 09:00:00 15.8 0 Calma 0 Calma 0 -- -- 86
2020-06-20 08:00:00 14.9 0 Calma -- -- 0 -- -- 93
2020-06-20 07:00:00 14.5 0 Calma -- -- 0 -- -- 94
2020-06-20 06:00:00 14.4 0 Calma -- -- 0 -- -- 93
2020-06-20 05:00:00 14.3 0 Calma 2 Noroeste 0 -- -- 92
2020-06-20 04:00:00 14.3 0 Calma 5 Noroeste 0 -- -- 91
2020-06-20 03:00:00 14.5 0 Calma 7 Noroeste 0 -- -- 89
2020-06-20 02:00:00 14.9 3 Noroeste 6 Noroeste 0 -- -- 89
2020-06-20 01:00:00 15.5 2 Noroeste 7 Norte 0 -- -- 87
2020-06-20 00:00:00 16 0 Calma 6 Nordeste 0 -- -- 86
2020-06-19 23:00:00 16.5 0 Calma 12 Norte 0 -- -- 83
2020-06-19 22:00:00 16.8 3 Noroeste 22 Norte 0 -- -- 77
2020-06-19 21:00:00 17.5 4 Noroeste 19 Noroeste 0 -- -- 75
2020-06-19 20:00:00 18.9 10 Noroeste 29 Norte 0 -- -- 68
2020-06-19 19:00:00 19.2 13 Norte 30 Noroeste 0 -- -- 66
2020-06-19 18:00:00 19.4 14 Noroeste 41 Norte 0 -- -- 69
2020-06-19 17:00:00 17.8 21 Norte 46 Noroeste 0 -- -- 76
2020-06-19 16:00:00 18.6 16 Noroeste 45 Noroeste 0 -- -- 72
2020-06-19 15:00:00 18.9 13 Norte 34 Norte 0 -- -- 71
2020-06-19 14:00:00 19.3 14 Norte 28 Norte 0 -- -- 65
2020-06-19 13:00:00 19 10 Norte 19 Norte 0 -- -- 65
2020-06-19 12:00:00 17.9 4 Noroeste 21 Norte 0 -- -- 69
2020-06-19 11:00:00 17.6 10 Norte 22 Norte 0 -- -- 70
2020-06-19 10:00:00 16.2 2 Noroeste 7 Norte 0 -- -- 75
2020-06-19 09:00:00 14 0 Calma 6 Sudeste 0 -- -- 82
2020-06-19 08:00:00 13.3 4 Sudeste 11 Sur 0 -- -- 85
2020-06-19 07:00:00 12.7 3 Sudeste 9 Sudeste 0 -- -- 93
2020-06-19 06:00:00 12.6 0 Calma 4 Sudoeste 0 -- -- 93
2020-06-19 05:00:00 13.1 0 Calma 3 Oeste 0 -- -- 92
2020-06-19 04:00:00 13.9 0 Calma 5 Oeste 0 -- -- 91
2020-06-19 03:00:00 14.3 0 Calma 3 Norte 0 -- -- 90
2020-06-19 02:00:00 14.6 0 Calma 3 Oeste 0 -- -- 87
2020-06-19 01:00:00 14.9 0 Calma 5 Sudoeste 0 -- -- 87
2020-06-19 00:00:00 15.2 0 Calma 9 Norte 0 -- -- 82
2020-06-18 23:00:00 15.6 2 Noroeste 17 Norte 0 -- -- 77
2020-06-18 22:00:00 15.7 3 Norte 17 Noroeste 0 -- -- 78
2020-06-18 21:00:00 15.9 7 Norte 21 Norte 0 -- -- 77
2020-06-18 20:00:00 16.2 7 Norte 19 Norte 0 -- -- 75
2020-06-18 19:00:00 16.7 6 Norte 25 Norte 0 -- -- 73
2020-06-18 18:00:00 17.5 14 Norte 30 Noroeste 0 -- -- 70
2020-06-18 17:00:00 18.9 17 Norte 32 Noroeste 0 -- -- 66
2020-06-18 16:00:00 20 13 Norte 32 Norte 0 -- -- 62
2020-06-18 15:00:00 19.4 18 Norte 36 Norte 0 -- -- 61
2020-06-18 14:00:00 19.2 15 Norte 33 Noroeste 0 -- -- 61
2020-06-18 13:00:00 18.3 15 Norte 28 Norte 0 -- -- 65
2020-06-18 12:00:00 18.2 9 Noroeste 23 Noroeste 0 -- -- 68
2020-06-18 11:00:00 15.9 0 Calma 6 Oeste 0 -- -- 79
2020-06-18 10:00:00 14.6 0 Calma 4 Este 0 -- -- 87
2020-06-18 09:00:00 13.2 0 Calma 4 Nordeste 0 -- -- 95
2020-06-18 08:00:00 12.6 0 Calma 2 Noroeste 0 -- -- 97
2020-06-18 07:00:00 12.4 0 Calma 3 Sudoeste 0 -- -- 97
2020-06-18 06:00:00 12.5 0 Calma 2 Noroeste 0 -- -- 97
2020-06-18 05:00:00 12.6 0 Calma 2 Oeste 0 -- -- 97
2020-06-18 04:00:00 12.6 0 Calma 3 Noroeste 0 -- -- 96
2020-06-18 03:00:00 12.6 0 Calma 3 Oeste 0 -- -- 96
2020-06-18 02:00:00 12.6 0 Calma 4 Nordeste 0 -- -- 95
2020-06-18 01:00:00 12.7 0 Calma 4 Sudoeste 1.8 -- -- 95
2020-06-18 00:00:00 12.9 0 Calma 7 Oeste 1 -- -- 94
2020-06-17 23:00:00 13.1 0 Calma 8 Sudoeste 0.8 -- -- 92
2020-06-17 22:00:00 13.4 0 Calma 15 Noroeste 0.8 -- -- 92
2020-06-17 21:00:00 13.7 8 Noroeste 27 Noroeste 0.6 -- -- 86
2020-06-17 20:00:00 14.7 14 Norte 33 Norte 0 -- -- 80
2020-06-17 19:00:00 15.6 14 Noroeste 31 Oeste 0.4 -- -- 77
2020-06-17 18:00:00 18.1 12 Norte 26 Noroeste 0 -- -- 65
2020-06-17 17:00:00 19.6 12 Nordeste 25 Norte 0 -- -- 56
2020-06-17 16:00:00 18.3 10 Norte 31 Norte 0 -- -- 59
2020-06-17 15:00:00 19.6 10 Norte 24 Noroeste 0 -- -- 55
2020-06-17 14:00:00 19.4 6 Norte 18 Norte 0 -- -- 62
2020-06-17 13:00:00 18.6 5 Norte 15 Norte 0 -- -- 66
2020-06-17 12:00:00 17.2 3 Este 6 Este 0 -- -- 72
2020-06-17 11:00:00 15.3 0 Calma 5 Norte 0 -- -- 83
2020-06-17 10:00:00 14.3 3 Nordeste 6 Sudeste 0 -- -- 86
2020-06-17 09:00:00 12.9 0 Calma 12 Sur 0 -- -- 89
2020-06-17 08:00:00 12 5 Sudeste 10 Sur 0 -- -- 93
2020-06-17 07:00:00 11.8 0 Calma 6 Sur 0 -- -- 96
2020-06-17 06:00:00 12.3 0 Calma 5 Sudoeste 0 -- -- 97
2020-06-17 05:00:00 12.4 0 Calma 4 Norte 0 -- -- 96
2020-06-17 04:00:00 12.6 0 Calma 3 Sur 0.2 -- -- 96
2020-06-17 03:00:00 12.9 0 Calma 4 Sudeste 0 -- -- 95
2020-06-17 02:00:00 13.2 0 Calma 5 Sudoeste 0.2 -- -- 94
2020-06-17 01:00:00 13.6 0 Calma 8 Oeste 0.2 -- -- 94
2020-06-17 00:00:00 13.6 2 Sudoeste 8 Sudeste 0 -- -- 93
2020-06-16 23:00:00 14 2 Sudoeste 5 Sudoeste 0 -- -- 91
2020-06-16 22:00:00 15.1 2 Sur 8 Sudoeste 0 -- -- 87
2020-06-16 21:00:00 15.7 3 Sur 14 Norte 0 -- -- 85
2020-06-16 20:00:00 16.1 8 Noroeste 21 Noroeste 0.2 -- -- 77
2020-06-16 19:00:00 17.1 4 Norte 26 Nordeste 0 -- -- 71
2020-06-16 18:00:00 18.1 10 Norte 25 Norte 0 -- -- 65
2020-06-16 17:00:00 17 2 Oeste 22 Noroeste 0 -- -- 78
2020-06-16 16:00:00 16.3 8 Noroeste 27 Norte 0.2 -- -- 76
2020-06-16 15:00:00 15.1 8 Noroeste 33 Noroeste 1 -- -- 87
2020-06-16 14:00:00 16.8 9 Noroeste 28 Oeste 0.4 -- -- 79
2020-06-16 13:00:00 18.2 9 Noroeste 22 Norte 0 -- -- 73
2020-06-16 12:00:00 17 6 Norte 12 Norte 0 -- -- 78
2020-06-16 11:00:00 15.2 4 Norte 6 Norte 0.6 -- -- 88
2020-06-16 10:00:00 14.9 0 Calma 6 Noroeste 0 -- -- 87
2020-06-16 09:00:00 13.9 2 Este 9 Sudeste 0 -- -- 92
2020-06-16 08:00:00 12.9 0 Calma 4 Este 0 -- -- 97
2020-06-16 07:00:00 12.5 0 Calma 5 Sudoeste 0 -- -- 96
2020-06-16 06:00:00 12.6 0 Calma 4 Este 0 -- -- 96
2020-06-16 05:00:00 13.6 0 Calma 5 Noroeste 0 -- -- 96
2020-06-16 04:00:00 13.8 0 Calma 6 Oeste 0 -- -- 96
2020-06-16 03:00:00 13.8 0 Calma 5 Sudeste 0 -- -- 96
2020-06-16 02:00:00 13.9 0 Calma 4 Noroeste 0 -- -- 96
2020-06-16 01:00:00 13.9 0 Calma 3 Noroeste 0 -- -- 95
2020-06-16 00:00:00 14.1 0 Calma 5 Oeste 0.4 -- -- 93
2020-06-15 23:00:00 14.4 4 Sudoeste 9 Sudoeste 0.2 -- -- 91
2020-06-15 22:00:00 14.7 0 Calma 16 Noroeste 0 -- -- 89
2020-06-15 21:00:00 15.2 5 Norte 16 Norte 0 -- -- 83
2020-06-15 20:00:00 15.3 4 Noroeste 14 Nordeste 0.2 -- -- 83
2020-06-15 19:00:00 15.5 5 Norte 22 Norte 0.4 -- -- 83
2020-06-15 18:00:00 16.7 7 Norte 18 Norte 0.2 -- -- 78
2020-06-15 17:00:00 17.4 8 Norte 25 Norte 0.2 -- -- 74
2020-06-15 16:00:00 18.5 14 Norte 32 Norte 0 -- -- 64
2020-06-15 15:00:00 19.6 15 Noroeste 32 Norte 0 -- -- 60
2020-06-15 14:00:00 20.1 11 Norte 36 Noroeste 0 -- -- 59
2020-06-15 13:00:00 20.5 11 Noroeste 22 Norte 0 -- -- 59
2020-06-15 12:00:00 20 3 Noroeste 8 Norte 0 -- -- 58
2020-06-15 11:00:00 17.1 5 Noroeste 9 Noroeste 0 -- -- 75
2020-06-15 10:00:00 14.6 2 Norte 5 Norte 0 -- -- 93
2020-06-15 09:00:00 13.8 0 Calma 3 Noroeste 0 -- -- 97
2020-06-15 08:00:00 13.4 0 Calma 2 Noroeste 0 -- -- 97
2020-06-15 07:00:00 13.1 0 Calma 2 Noroeste 0 -- -- 97
2020-06-15 06:00:00 13.2 0 Calma 3 Oeste 0 -- -- 97
2020-06-15 05:00:00 13.2 0 Calma 3 Norte 0 -- -- 96
2020-06-15 04:00:00 13.2 0 Calma -- -- 0 -- -- 96
2020-06-15 03:00:00 13.4 0 Calma 3 Oeste 0 -- -- 95
2020-06-15 02:00:00 13.6 0 Calma -- -- 0 -- -- 95
2020-06-15 01:00:00 13.8 0 Calma 5 Sudoeste 0 -- -- 95
2020-06-15 00:00:00 14 0 Calma 3 Este 0 -- -- 94
2020-06-14 23:00:00 14 0 Calma 3 Noroeste 0 -- -- 94
2020-06-14 22:00:00 14.3 0 Calma 7 Sur 0.2 -- -- 91
2020-06-14 21:00:00 14.8 3 Sur 21 Noroeste 1 -- -- 88
2020-06-14 20:00:00 14.8 8 Norte 32 Norte 0.6 -- -- 84
2020-06-14 19:00:00 16.5 12 Norte 30 Norte 0 -- -- 71
2020-06-14 18:00:00 17.6 12 Norte 33 Norte 0 -- -- 66
2020-06-14 17:00:00 18.8 10 Noroeste 27 Norte 0 -- -- 62
2020-06-14 16:00:00 19.3 13 Norte 28 Norte 0 -- -- 60
2020-06-14 15:00:00 19.4 8 Norte 25 Norte 0 -- -- 61
2020-06-14 14:00:00 20.4 9 Noroeste 21 Norte 0 -- -- 55
2020-06-14 13:00:00 20.4 12 Norte 23 Norte 0 -- -- 54
2020-06-14 12:00:00 20.1 5 Norte 15 Norte 0 -- -- 51
2020-06-14 11:00:00 18.5 0 Calma 8 Nordeste 0 -- -- 59
2020-06-14 10:00:00 15.8 0 Calma 4 Nordeste 0 -- -- 73
2020-06-14 09:00:00 12.6 0 Calma 2 Nordeste 0 -- -- 88
2020-06-14 08:00:00 11 0 Calma 4 Noroeste 0 -- -- 96
2020-06-14 07:00:00 10.6 0 Calma 3 Sudeste 0 -- -- 94
2020-06-14 06:00:00 11.3 0 Calma 5 Sur 0 -- -- 93
2020-06-14 05:00:00 12.5 0 Calma 2 Noroeste 0 -- -- 93
2020-06-14 04:00:00 12.9 0 Calma 3 Sudoeste 0 -- -- 91
2020-06-14 03:00:00 13.1 0 Calma 2 Sur 0 -- -- 90
2020-06-14 02:00:00 13.6 0 Calma 3 Sur 0 -- -- 89
2020-06-14 01:00:00 14 0 Calma 5 Sudeste 0 -- -- 87
2020-06-14 00:00:00 14.3 2 Sur 6 Norte 0 -- -- 86
2020-06-13 23:00:00 14.8 3 Noroeste 13 Nordeste 0 -- -- 80
2020-06-13 22:00:00 15 6 Nordeste 20 Norte 0 -- -- 78
2020-06-13 21:00:00 15.5 5 Norte 17 Noroeste 0 -- -- 74
2020-06-13 20:00:00 15.9 7 Noroeste 27 Noroeste 0 -- -- 74
2020-06-13 19:00:00 16.6 6 Norte 22 Noroeste 0 -- -- 74
2020-06-13 18:00:00 16.2 9 Norte 30 Noroeste 0.4 -- -- 76
2020-06-13 17:00:00 15.8 13 Noroeste 35 Noroeste 0.4 -- -- 80
2020-06-13 16:00:00 17.5 13 Norte 32 Norte 0 -- -- 70
2020-06-13 15:00:00 21.1 8 Norte 17 Norte 0 -- -- 54
2020-06-13 14:00:00 20.6 5 Nordeste 14 Noroeste 0 -- -- 45
2020-06-13 13:00:00 18.8 8 Norte 14 Norte 0 -- -- 55
2020-06-13 12:00:00 16.8 2 Oeste 9 Noroeste 0 -- -- 71
2020-06-13 11:00:00 15.6 2 Oeste 7 Oeste 0 -- -- 77
2020-06-13 10:00:00 13.6 0 Calma 6 Norte 0 -- -- 92
2020-06-13 09:00:00 12 0 Calma 6 Sudeste 0 -- -- 95
2020-06-13 08:00:00 11.4 0 Calma 4 Nordeste 0 -- -- 97
2020-06-13 07:00:00 10.9 0 Calma 4 Oeste 0 -- -- 96
2020-06-13 06:00:00 11 2 Oeste 4 Sudoeste 0 -- -- 96
2020-06-13 05:00:00 11.1 0 Calma 2 Sur 0 -- -- 96
2020-06-13 04:00:00 11.4 0 Calma 3 Sur 0.2 -- -- 95
2020-06-13 03:00:00 11.6 0 Calma 4 Sudeste 0 -- -- 94
2020-06-13 02:00:00 11.9 0 Calma 8 Sudeste 0.2 -- -- 91
2020-06-13 01:00:00 12.1 0 Calma 11 Sudeste 0 -- -- 91
2020-06-13 00:00:00 12.8 6 Sur 10 Sur 0.2 -- -- 85
2020-06-12 23:00:00 13.7 0 Calma 13 Este 0 -- -- 78
2020-06-12 22:00:00 14.8 5 Noroeste 17 Nordeste 0 -- -- 72
2020-06-12 21:00:00 15.6 2 Noroeste 15 Norte 0 -- -- 67
2020-06-12 20:00:00 16.8 12 Norte 26 Norte 0 -- -- 59
2020-06-12 19:00:00 18.5 9 Norte 19 Norte 0 -- -- 49
2020-06-12 18:00:00 18.6 8 Noroeste 16 Norte 0 -- -- 46
2020-06-12 17:00:00 17.1 8 Norte 21 Este 0 -- -- 55
2020-06-12 16:00:00 14.3 8 Sudeste 31 Este 0.4 -- -- 67
2020-06-12 15:00:00 17.4 5 Sudoeste 24 Oeste 0.6 -- -- 61
2020-06-12 14:00:00 18.8 5 Este 13 Nordeste 0 -- -- 43
2020-06-12 13:00:00 17.5 4 Norte 16 Noroeste 0 -- -- 51
2020-06-12 12:00:00 16.7 2 Noroeste 27 Sudeste 0 -- -- 54
2020-06-12 11:00:00 14.9 2 Sudeste 8 Noroeste 0 -- -- 74
2020-06-12 10:00:00 12.4 0 Calma 6 Este 0 -- -- 89
2020-06-12 09:00:00 10.3 2 Nordeste 8 Este 0 -- -- 96
2020-06-12 08:00:00 9.3 0 Calma 7 Sudeste 0 -- -- 96
2020-06-12 07:00:00 9.3 0 Calma 5 Sudoeste 0 -- -- 95
2020-06-12 06:00:00 9.8 0 Calma 10 Este 0.2 -- -- 94
2020-06-12 05:00:00 10.3 4 Sur 13 Sudeste 0.2 -- -- 90
2020-06-12 04:00:00 10.3 7 Sudeste 17 Sudeste 0 -- -- 88
2020-06-12 03:00:00 10 10 Sudeste 22 Sudeste 0 -- -- 89
2020-06-12 02:00:00 10.1 14 Sudeste 23 Sur 0 -- -- 89
2020-06-12 01:00:00 10.1 14 Sudeste 22 Sudeste 0 -- -- 89
2020-06-12 00:00:00 9.8 2 Sur 10 Sur 0 -- -- 94
2020-06-11 23:00:00 9.7 0 Calma 7 Sudeste 0 -- -- 93
2020-06-11 22:00:00 10.6 3 Sur 9 Oeste 0 -- -- 91
2020-06-11 21:00:00 11.8 0 Calma 18 Sudeste 0.6 -- -- 89
2020-06-11 20:00:00 12.1 0 Calma 15 Norte 0.8 -- -- 86
2020-06-11 19:00:00 13.1 6 Noroeste 39 Nordeste 1 -- -- 74
2020-06-11 18:00:00 16.3 15 Norte 35 Noroeste 0 -- -- 60
2020-06-11 17:00:00 16.3 14 Norte 37 Este 0 -- -- 62
2020-06-11 16:00:00 16.8 18 Norte 33 Norte 0 -- -- 59
2020-06-11 15:00:00 18.1 8 Norte 23 Norte 0 -- -- 57
2020-06-11 14:00:00 16.8 8 Oeste 39 Norte 0 -- -- 57
2020-06-11 13:00:00 15.2 20 Norte 43 Norte 0.4 -- -- 68
2020-06-11 12:00:00 18.4 18 Norte 31 Norte 0 -- -- 63
2020-06-11 11:00:00 16.6 3 Sudeste 6 Sudeste 0 -- -- 74
2020-06-11 10:00:00 14.7 0 Calma 9 Noroeste 0 -- -- 84
2020-06-11 09:00:00 14.1 0 Calma 5 Noroeste 0 -- -- 90
2020-06-11 08:00:00 12.8 0 Calma 3 Oeste 0 -- -- 93
2020-06-11 07:00:00 12.5 0 Calma 4 Sur 0 -- -- 93
2020-06-11 06:00:00 12.5 0 Calma 3 Sudoeste 0 -- -- 93
2020-06-11 05:00:00 12.7 0 Calma 0 Calma 0 -- -- 92
2020-06-11 04:00:00 13.1 0 Calma 2 Sudoeste 0 -- -- 90
2020-06-11 03:00:00 13.5 0 Calma 0 Calma 0 -- -- 89
2020-06-11 02:00:00 14 2 Sudeste 4 Sudeste 0 -- -- 84
2020-06-11 01:00:00 14 0 Calma 4 Norte 0 -- -- 84
2020-06-11 00:00:00 14.2 0 Calma 9 Norte 0 -- -- 83
2020-06-10 23:00:00 14.3 3 Nordeste 6 Oeste 0 -- -- 82
2020-06-10 22:00:00 14.6 3 Noroeste 14 Noroeste 0 -- -- 80
2020-06-10 21:00:00 15 4 Norte 13 Norte 0 -- -- 78
2020-06-10 20:00:00 15.4 5 Norte 23 Norte 0 -- -- 76
2020-06-10 19:00:00 15.9 8 Noroeste 33 Norte 0 -- -- 73
2020-06-10 18:00:00 15.9 16 Norte 32 Norte 0 -- -- 73
2020-06-10 17:00:00 17.2 15 Norte 32 Norte 0 -- -- 68
2020-06-10 16:00:00 18 16 Norte 37 Norte 0 -- -- 62
2020-06-10 15:00:00 18 16 Norte 30 Noroeste 0 -- -- 64
2020-06-10 14:00:00 18.7 14 Norte 26 Norte 0 -- -- 61
2020-06-10 13:00:00 18.1 10 Norte 28 Norte 0 -- -- 60
2020-06-10 12:00:00 17.6 13 Norte 27 Noroeste 0 -- -- 57
2020-06-10 11:00:00 15.7 3 Sudoeste 7 Oeste 0 -- -- 66
2020-06-10 10:00:00 12 0 Calma 4 Noroeste 0 -- -- 80
2020-06-10 09:00:00 9.3 0 Calma 4 Norte 0 -- -- 93
2020-06-10 08:00:00 8.1 0 Calma -- -- 0 -- -- 95
2020-06-10 07:00:00 7.7 0 Calma 5 Noroeste 0 -- -- 95
2020-06-10 06:00:00 8 3 Sur 10 Sur 0 -- -- 93
2020-06-10 05:00:00 8.6 0 Calma -- -- 0 -- -- 92
2020-06-10 04:00:00 9.6 0 Calma 3 Oeste 0 -- -- 91
2020-06-10 03:00:00 10.6 0 Calma 4 Sudeste 0 -- -- 87
2020-06-10 02:00:00 12.6 0 Calma 2 Noroeste 0 -- -- 80
2020-06-10 01:00:00 14.2 0 Calma 6 Noroeste 0 -- -- 73
2020-06-10 00:00:00 14.9 3 Noroeste 19 Norte 0 -- -- 65
2020-06-09 23:00:00 15 7 Norte 21 Noroeste 0 -- -- 65
2020-06-09 22:00:00 15.2 9 Norte 22 Noroeste 0 -- -- 65
2020-06-09 21:00:00 15.6 8 Norte 28 Norte 0 -- -- 63
2020-06-09 20:00:00 16 11 Norte 31 Norte 0 -- -- 63
2020-06-09 19:00:00 16.5 14 Noroeste 30 Norte 0 -- -- 62
2020-06-09 18:00:00 17.5 10 Norte 36 Norte 0 -- -- 58
2020-06-09 17:00:00 17.7 12 Norte 35 Norte 0 -- -- 58
2020-06-09 16:00:00 18.2 12 Norte 31 Nordeste 0 -- -- 53
2020-06-09 15:00:00 16.6 12 Norte 31 Norte 0 -- -- 59
2020-06-09 14:00:00 17.3 10 Norte 27 Nordeste 0 -- -- 48
2020-06-09 13:00:00 17.9 9 Sur 22 Noroeste 0 -- -- 51
2020-06-09 12:00:00 16 10 Norte 24 Nordeste 0 -- -- 56
2020-06-09 11:00:00 15.5 0 Calma 5 Noroeste 0 -- -- 63
2020-06-09 10:00:00 13.3 2 Nordeste 4 Nordeste 0 -- -- 74
2020-06-09 09:00:00 11.3 0 Calma 3 Oeste 0 -- -- 86
2020-06-09 08:00:00 10.1 0 Calma 2 Noroeste 0 -- -- 93
2020-06-09 07:00:00 10 0 Calma 5 Sudeste 0 -- -- 91
2020-06-09 06:00:00 10.6 0 Calma 5 Noroeste 0 -- -- 90
2020-06-09 05:00:00 11.2 3 Sudeste 9 Sudeste 0 -- -- 85
2020-06-09 04:00:00 10.9 0 Calma 6 Sur 0 -- -- 87
2020-06-09 03:00:00 11.4 6 Sudeste 12 Sudeste 0 -- -- 84
2020-06-09 02:00:00 11.3 2 Sur 14 Sudeste 0 -- -- 83
2020-06-09 01:00:00 12.1 3 Sur 13 Sudeste 0 -- -- 81
2020-06-09 00:00:00 12.8 4 Sur 16 Oeste 0 -- -- 77
2020-06-08 23:00:00 13.4 6 Noroeste 28 Oeste 0 -- -- 73
2020-06-08 22:00:00 14.7 11 Norte 31 Nordeste 0 -- -- 64
2020-06-08 21:00:00 14.7 14 Norte 35 Nordeste 0 -- -- 65
2020-06-08 20:00:00 15.5 16 Norte 34 Norte 0 -- -- 60
2020-06-08 19:00:00 15.4 16 Nordeste 31 Norte 0 -- -- 63
2020-06-08 18:00:00 15.6 16 Norte 33 Nordeste 0 -- -- 61
2020-06-08 17:00:00 15 13 Norte 35 Norte 0 -- -- 69
2020-06-08 16:00:00 17.2 12 Nordeste 33 Norte 0 -- -- 54
2020-06-08 15:00:00 16.1 14 Norte 36 Norte 0 -- -- 60
2020-06-08 14:00:00 15.3 14 Norte 27 Nordeste 0 -- -- 66
2020-06-08 13:00:00 15.5 13 Norte 23 Norte 0 -- -- 63
2020-06-08 12:00:00 13.3 3 Noroeste 9 Norte 0 -- -- 72
2020-06-08 11:00:00 12.8 3 Nordeste 6 Oeste 0 -- -- 71
2020-06-08 10:00:00 9.5 3 Norte 7 Norte 0 -- -- 87
2020-06-08 09:00:00 8.2 0 Calma 4 Oeste 0 -- -- 90
2020-06-08 08:00:00 7.2 0 Calma 4 Noroeste 0 -- -- 94
2020-06-08 07:00:00 6.5 2 Sur 6 Sudeste 0 -- -- 95
2020-06-08 06:00:00 6.2 0 Calma 4 Sur 0 -- -- 93
2020-06-08 05:00:00 7.3 0 Calma 3 Sudoeste 0 -- -- 91
2020-06-08 04:00:00 8.6 0 Calma 4 Sudeste 0 -- -- 90
2020-06-08 03:00:00 8.9 0 Calma 8 Sudeste 0 -- -- 89
2020-06-08 02:00:00 9.4 0 Calma 4 Sudoeste 0 -- -- 86
2020-06-08 01:00:00 9.6 0 Calma 18 Sur 0 -- -- 82
2020-06-08 00:00:00 10.2 8 Sudeste 15 Sur 0 -- -- 77
2020-06-07 23:00:00 11.1 2 Sudoeste 18 Norte 0 -- -- 72
2020-06-07 22:00:00 13.6 12 Norte 31 Norte 0 -- -- 57
2020-06-07 21:00:00 13.8 14 Norte 37 Norte 0 -- -- 57
2020-06-07 20:00:00 13.9 15 Nordeste 37 Nordeste 0 -- -- 57
2020-06-07 19:00:00 14 15 Norte 36 Norte 0 -- -- 66
2020-06-07 18:00:00 15.4 13 Norte 31 Norte 0 -- -- 59
2020-06-07 17:00:00 15.6 14 Nordeste 24 Norte 0 -- -- 55
2020-06-07 16:00:00 15.7 10 Norte 26 Norte 0 -- -- 53
2020-06-07 15:00:00 14.6 13 Norte 30 Nordeste 0 -- -- 52
2020-06-07 14:00:00 14.3 11 Nordeste 25 Nordeste 0 -- -- 52
2020-06-07 13:00:00 13.2 9 Norte 25 Noroeste 0 -- -- 62
2020-06-07 12:00:00 12.7 14 Norte 27 Norte 0 -- -- 69
2020-06-07 11:00:00 12.9 13 Norte 25 Noroeste 0 -- -- 65
2020-06-07 10:00:00 12.7 8 Noroeste 19 Norte 0 -- -- 67
2020-06-07 09:00:00 11.9 13 Norte 24 Norte 0 -- -- 75
2020-06-07 08:00:00 11.7 8 Noroeste 19 Noroeste 0 -- -- 78
2020-06-07 07:00:00 11.6 8 Noroeste 18 Norte 0 -- -- 79
2020-06-07 06:00:00 11.7 10 Noroeste 19 Noroeste 0 -- -- 77
2020-06-07 05:00:00 11.6 12 Noroeste 30 Oeste 0 -- -- 78
2020-06-07 04:00:00 11.9 17 Norte 32 Norte 0 -- -- 77
2020-06-07 03:00:00 13 14 Noroeste 33 Norte 0 -- -- 76
2020-06-07 02:00:00 13.3 13 Norte 30 Norte 0 -- -- 77
2020-06-07 01:00:00 14 10 Noroeste 26 Norte 0 -- -- 79
2020-06-07 00:00:00 14.3 10 Noroeste 33 Norte 0 -- -- 78